Romulus, New York
Current Conditions -  °F | °C
As of 4:53 AM on Saturday 22 Nov 2014 (Local Time) from KPEO Reporting Station
Clear Clear  
Wind Chill: 10°   Ceiling: Unl
Heat Index: 22°   Visibility: 10mi
Dew Point: 11°   Wind: 12mph
Humidity: 63%   Direction: 200°SSW
Pressure: 30.31"   Gusts: NA
Location:  42.75°N, 76.83°W
Report Text: KPEO 220953Z AUTO 20010KT 10SM CLR M06/M12 A3031 RMK AO2 SLP280 T10561117
Loading
Personal Weather Stations






























Interactive Weather Map New forecast layout! Learn more

10-Day Weather Forecast

Advertisements
Track Severe Weather on mobile